sensor_id;sensor_type;location;lat;lon;timestamp;pressure;altitude;pressure_sealevel;temperature;humidity
7075;BME280;3578;51.568;6.932;2023-04-08T00:02:07;47441.19;;;-144.14;100.00
7075;BME280;3578;51.568;6.932;2023-04-08T00:04:33;47425.19;;;-144.14;100.00
7075;BME280;3578;51.568;6.932;2023-04-08T00:07:02;47419.19;;;-144.14;100.00
7075;BME280;3578;51.568;6.932;2023-04-08T00:09:29;47411.19;;;-144.14;100.00
7075;BME280;3578;51.568;6.932;2023-04-08T00:11:55;47375.16;;;-144.14;100.00
7075;BME280;3578;51.568;6.932;2023-04-08T00:14:22;47387.16;;;-144.14;100.00
7075;BME280;3578;51.568;6.932;2023-04-08T00:16:50;47415.19;;;-144.14;100.00
7075;BME280;3578;51.568;6.932;2023-04-08T00:19:17;47451.19;;;-144.14;100.00
7075;BME280;3578;51.568;6.932;2023-04-08T00:21:44;47483.19;;;-144.14;100.00
7075;BME280;3578;51.568;6.932;2023-04-08T00:24:13;47591.25;;;-144.14;100.00
7075;BME280;3578;51.568;6.932;2023-04-08T00:26:41;47631.25;;;-144.14;100.00
7075;BME280;3578;51.568;6.932;2023-04-08T00:29:08;47609.25;;;-144.14;100.00
7075;BME280;3578;51.568;6.932;2023-04-08T00:31:35;47611.25;;;-144.14;100.00
7075;BME280;3578;51.568;6.932;2023-04-08T00:34:02;47671.28;;;-144.14;100.00
7075;BME280;3578;51.568;6.932;2023-04-08T00:36:29;47631.25;;;-144.14;100.00
7075;BME280;3578;51.568;6.932;2023-04-08T00:38:56;47609.25;;;-144.14;100.00
7075;BME280;3578;51.568;6.932;2023-04-08T00:41:24;47649.25;;;-144.14;100.00
7075;BME280;3578;51.568;6.932;2023-04-08T00:43:51;47667.28;;;-144.14;100.00
7075;BME280;3578;51.568;6.932;2023-04-08T00:46:19;47697.28;;;-144.14;100.00
7075;BME280;3578;51.568;6.932;2023-04-08T00:48:46;47625.25;;;-144.14;100.00
7075;BME280;3578;51.568;6.932;2023-04-08T00:51:13;47459.19;;;-144.14;100.00
7075;BME280;3578;51.568;6.932;2023-04-08T00:53:40;47493.22;;;-144.14;100.00
7075;BME280;3578;51.568;6.932;2023-04-08T00:56:08;47413.19;;;-144.14;100.00
7075;BME280;3578;51.568;6.932;2023-04-08T00:58:37;47437.19;;;-144.14;100.00
7075;BME280;3578;51.568;6.932;2023-04-08T01:01:09;47479.19;;;-144.14;100.00
7075;BME280;3578;51.568;6.932;2023-04-08T01:03:52;47581.25;;;-144.14;100.00
7075;BME280;3578;51.568;6.932;2023-04-08T01:06:27;47647.25;;;-144.14;100.00
7075;BME280;3578;51.568;6.932;2023-04-08T01:08:59;47689.28;;;-144.14;100.00
7075;BME280;3578;51.568;6.932;2023-04-08T01:11:27;47667.28;;;-144.14;100.00
7075;BME280;3578;51.568;6.932;2023-04-08T01:13:57;47567.22;;;-144.14;100.00
7075;BME280;3578;51.568;6.932;2023-04-08T01:16:26;47637.25;;;-144.14;100.00
7075;BME280;3578;51.568;6.932;2023-04-08T01:18:54;47519.22;;;-144.14;100.00
7075;BME280;3578;51.568;6.932;2023-04-08T01:21:23;47583.25;;;-144.14;100.00
7075;BME280;3578;51.568;6.932;2023-04-08T01:23:58;47605.25;;;-144.14;100.00
7075;BME280;3578;51.568;6.932;2023-04-08T01:26:29;47595.25;;;-144.14;100.00
7075;BME280;3578;51.568;6.932;2023-04-08T01:28:59;47617.25;;;-144.14;100.00
7075;BME280;3578;51.568;6.932;2023-04-08T01:31:28;47689.28;;;-144.14;100.00
7075;BME280;3578;51.568;6.932;2023-04-08T01:33:57;47733.28;;;-144.14;100.00
7075;BME280;3578;51.568;6.932;2023-04-08T01:36:26;47719.28;;;-144.14;100.00
7075;BME280;3578;51.568;6.932;2023-04-08T01:38:54;47625.25;;;-144.14;100.00
7075;BME280;3578;51.568;6.932;2023-04-08T01:41:22;47595.25;;;-144.14;100.00
7075;BME280;3578;51.568;6.932;2023-04-08T01:43:51;47599.25;;;-144.14;100.00
7075;BME280;3578;51.568;6.932;2023-04-08T01:46:20;47497.22;;;-144.14;100.00
7075;BME280;3578;51.568;6.932;2023-04-08T01:48:47;47573.22;;;-144.14;100.00
7075;BME280;3578;51.568;6.932;2023-04-08T01:51:16;47655.25;;;-144.14;100.00
7075;BME280;3578;51.568;6.932;2023-04-08T01:53:44;47639.25;;;-144.14;100.00
7075;BME280;3578;51.568;6.932;2023-04-08T01:56:12;47571.22;;;-144.14;100.00
7075;BME280;3578;51.568;6.932;2023-04-08T01:58:45;47611.25;;;-144.14;100.00
7075;BME280;3578;51.568;6.932;2023-04-08T02:01:19;47687.28;;;-144.14;100.00
7075;BME280;3578;51.568;6.932;2023-04-08T02:03:47;47395.16;;;-144.14;100.00
7075;BME280;3578;51.568;6.932;2023-04-08T02:06:16;47275.13;;;-144.14;100.00
7075;BME280;3578;51.568;6.932;2023-04-08T02:08:44;47311.16;;;-144.14;100.00
7075;BME280;3578;51.568;6.932;2023-04-08T02:11:11;47221.13;;;-144.14;100.00
7075;BME280;3578;51.568;6.932;2023-04-08T02:13:38;47309.16;;;-144.14;100.00
7075;BME280;3578;51.568;6.932;2023-04-08T02:16:18;47503.22;;;-144.14;100.00
7075;BME280;3578;51.568;6.932;2023-04-08T02:18:55;47563.22;;;-144.14;100.00
7075;BME280;3578;51.568;6.932;2023-04-08T02:21:28;47671.28;;;-144.14;100.00
7075;BME280;3578;51.568;6.932;2023-04-08T02:23:58;47647.25;;;-144.14;100.00
7075;BME280;3578;51.568;6.932;2023-04-08T02:26:27;47549.22;;;-144.14;100.00
7075;BME280;3578;51.568;6.932;2023-04-08T02:28:55;47609.25;;;-144.14;100.00
7075;BME280;3578;51.568;6.932;2023-04-08T02:31:25;47677.28;;;-144.14;100.00
7075;BME280;3578;51.568;6.932;2023-04-08T02:33:52;47697.28;;;-144.14;100.00
7075;BME280;3578;51.568;6.932;2023-04-08T02:36:21;47823.34;;;-144.14;100.00
7075;BME280;3578;51.568;6.932;2023-04-08T02:38:49;47851.34;;;-144.14;100.00
7075;BME280;3578;51.568;6.932;2023-04-08T02:41:16;47871.34;;;-144.14;100.00
7075;BME280;3578;51.568;6.932;2023-04-08T02:43:43;47923.38;;;-144.14;100.00
7075;BME280;3578;51.568;6.932;2023-04-08T02:46:11;47923.38;;;-144.14;100.00
7075;BME280;3578;51.568;6.932;2023-04-08T02:48:39;47955.41;;;-144.14;100.00
7075;BME280;3578;51.568;6.932;2023-04-08T02:51:06;47863.34;;;-144.14;100.00
7075;BME280;3578;51.568;6.932;2023-04-08T02:53:33;47971.41;;;-144.14;100.00
7075;BME280;3578;51.568;6.932;2023-04-08T02:56:00;47939.38;;;-144.14;100.00
7075;BME280;3578;51.568;6.932;2023-04-08T02:58:28;47767.31;;;-144.14;100.00
7075;BME280;3578;51.568;6.932;2023-04-08T03:00:55;47685.28;;;-144.14;100.00
7075;BME280;3578;51.568;6.932;2023-04-08T03:03:22;47911.38;;;-144.14;100.00
7075;BME280;3578;51.568;6.932;2023-04-08T03:05:54;47689.28;;;-144.14;100.00
7075;BME280;3578;51.568;6.932;2023-04-08T03:08:22;47765.31;;;-144.14;100.00
7075;BME280;3578;51.568;6.932;2023-04-08T03:10:49;48059.44;;;-144.14;100.00
7075;BME280;3578;51.568;6.932;2023-04-08T03:13:16;48197.53;;;-144.14;100.00
7075;BME280;3578;51.568;6.932;2023-04-08T03:15:43;48081.47;;;-144.14;100.00
7075;BME280;3578;51.568;6.932;2023-04-08T03:18:10;47979.41;;;-144.14;100.00
7075;BME280;3578;51.568;6.932;2023-04-08T03:20:37;47975.41;;;-144.14;100.00
7075;BME280;3578;51.568;6.932;2023-04-08T03:23:06;47981.41;;;-144.14;100.00
7075;BME280;3578;51.568;6.932;2023-04-08T03:25:33;48033.44;;;-144.14;100.00
7075;BME280;3578;51.568;6.932;2023-04-08T03:27:59;48051.44;;;-144.14;100.00
7075;BME280;3578;51.568;6.932;2023-04-08T03:30:26;48103.47;;;-144.14;100.00
7075;BME280;3578;51.568;6.932;2023-04-08T03:32:53;48193.53;;;-144.14;100.00
7075;BME280;3578;51.568;6.932;2023-04-08T03:35:20;48127.47;;;-144.14;100.00
7075;BME280;3578;51.568;6.932;2023-04-08T03:37:47;48227.53;;;-144.14;100.00
7075;BME280;3578;51.568;6.932;2023-04-08T03:40:16;48405.63;;;-144.14;100.00
7075;BME280;3578;51.568;6.932;2023-04-08T03:42:43;48541.72;;;-144.14;100.00
7075;BME280;3578;51.568;6.932;2023-04-08T03:45:10;48651.81;;;-144.14;100.00
7075;BME280;3578;51.568;6.932;2023-04-08T03:47:37;48763.88;;;-144.14;100.00
7075;BME280;3578;51.568;6.932;2023-04-08T03:50:06;48595.75;;;-144.14;100.00
7075;BME280;3578;51.568;6.932;2023-04-08T03:52:33;48363.63;;;-144.14;100.00
7075;BME280;3578;51.568;6.932;2023-04-08T03:55:00;48321.59;;;-144.14;100.00
7075;BME280;3578;51.568;6.932;2023-04-08T03:57:29;48599.75;;;-144.14;100.00
7075;BME280;3578;51.568;6.932;2023-04-08T03:59:56;48479.69;;;-144.14;100.00
7075;BME280;3578;51.568;6.932;2023-04-08T04:02:23;48723.84;;;-144.14;100.00
7075;BME280;3578;51.568;6.932;2023-04-08T04:04:50;48795.91;;;-144.14;100.00
7075;BME280;3578;51.568;6.932;2023-04-08T04:07:17;48805.91;;;-144.14;100.00
7075;BME280;3578;51.568;6.932;2023-04-08T04:09:44;48787.91;;;-144.14;100.00
7075;BME280;3578;51.568;6.932;2023-04-08T04:12:11;48843.94;;;-144.14;100.00
7075;BME280;3578;51.568;6.932;2023-04-08T04:14:40;48723.84;;;-144.14;100.00
7075;BME280;3578;51.568;6.932;2023-04-08T04:17:07;48679.81;;;-144.14;100.00
7075;BME280;3578;51.568;6.932;2023-04-08T04:19:34;48723.84;;;-144.14;100.00
7075;BME280;3578;51.568;6.932;2023-04-08T04:22:01;48543.72;;;-144.14;100.00
7075;BME280;3578;51.568;6.932;2023-04-08T04:24:28;48423.66;;;-144.14;100.00
7075;BME280;3578;51.568;6.932;2023-04-08T04:26:55;48363.63;;;-144.14;100.00
7075;BME280;3578;51.568;6.932;2023-04-08T04:29:22;48333.59;;;-144.14;100.00
7075;BME280;3578;51.568;6.932;2023-04-08T04:31:50;48273.56;;;-144.14;100.00
7075;BME280;3578;51.568;6.932;2023-04-08T04:34:17;48297.56;;;-144.14;100.00
7075;BME280;3578;51.568;6.932;2023-04-08T04:36:44;48357.63;;;-144.14;100.00
7075;BME280;3578;51.568;6.932;2023-04-08T04:39:12;48451.66;;;-144.14;100.00
7075;BME280;3578;51.568;6.932;2023-04-08T04:41:38;48519.72;;;-144.14;100.00
7075;BME280;3578;51.568;6.932;2023-04-08T04:44:06;48479.69;;;-144.14;100.00
7075;BME280;3578;51.568;6.932;2023-04-08T04:46:33;48503.69;;;-144.14;100.00
7075;BME280;3578;51.568;6.932;2023-04-08T04:49:01;48609.78;;;-144.14;100.00
7075;BME280;3578;51.568;6.932;2023-04-08T04:51:30;48715.84;;;-144.14;100.00
7075;BME280;3578;51.568;6.932;2023-04-08T04:53:57;48707.84;;;-144.14;100.00
7075;BME280;3578;51.568;6.932;2023-04-08T04:56:25;48739.88;;;-144.14;100.00
7075;BME280;3578;51.568;6.932;2023-04-08T04:58:52;48799.91;;;-144.14;100.00
7075;BME280;3578;51.568;6.932;2023-04-08T05:01:19;48795.91;;;-144.14;100.00
7075;BME280;3578;51.568;6.932;2023-04-08T05:03:46;48831.94;;;-144.14;100.00
7075;BME280;3578;51.568;6.932;2023-04-08T05:06:15;48843.94;;;-144.14;100.00
7075;BME280;3578;51.568;6.932;2023-04-08T05:08:42;48851.94;;;-144.14;100.00
7075;BME280;3578;51.568;6.932;2023-04-08T05:11:09;48891.97;;;-144.14;100.00
7075;BME280;3578;51.568;6.932;2023-04-08T05:13:36;48871.97;;;-144.14;100.00
7075;BME280;3578;51.568;6.932;2023-04-08T05:16:03;48855.94;;;-144.14;100.00
7075;BME280;3578;51.568;6.932;2023-04-08T05:18:30;48755.88;;;-144.14;100.00
7075;BME280;3578;51.568;6.932;2023-04-08T05:20:58;48721.84;;;-144.14;100.00
7075;BME280;3578;51.568;6.932;2023-04-08T05:23:26;48727.84;;;-144.14;100.00
7075;BME280;3578;51.568;6.932;2023-04-08T05:25:53;48661.81;;;-144.14;100.00
7075;BME280;3578;51.568;6.932;2023-04-08T05:28:20;48701.84;;;-144.14;100.00
7075;BME280;3578;51.568;6.932;2023-04-08T05:30:48;48769.88;;;-144.14;100.00
7075;BME280;3578;51.568;6.932;2023-04-08T05:33:16;48879.97;;;-144.14;100.00
7075;BME280;3578;51.568;6.932;2023-04-08T05:35:43;48960.03;;;-144.14;100.00
7075;BME280;3578;51.568;6.932;2023-04-08T05:38:10;48990.06;;;-144.14;100.00
7075;BME280;3578;51.568;6.932;2023-04-08T05:40:38;49064.09;;;-144.14;100.00
7075;BME280;3578;51.568;6.932;2023-04-08T05:43:05;49098.13;;;-144.14;100.00
7075;BME280;3578;51.568;6.932;2023-04-08T05:45:32;49236.25;;;-144.14;100.00
7075;BME280;3578;51.568;6.932;2023-04-08T05:47:59;49282.28;;;-144.14;100.00
7075;BME280;3578;51.568;6.932;2023-04-08T05:50:26;49344.34;;;-144.14;100.00
7075;BME280;3578;51.568;6.932;2023-04-08T05:52:53;49454.44;;;-144.14;100.00
7075;BME280;3578;51.568;6.932;2023-04-08T05:55:20;49480.47;;;-144.14;100.00
7075;BME280;3578;51.568;6.932;2023-04-08T05:57:48;49470.47;;;-144.14;100.00
7075;BME280;3578;51.568;6.932;2023-04-08T06:00:15;49432.44;;;-144.14;100.00
7075;BME280;3578;51.568;6.932;2023-04-08T06:02:43;49426.41;;;-144.14;100.00
7075;BME280;3578;51.568;6.932;2023-04-08T06:05:10;49394.38;;;-144.14;100.00
7075;BME280;3578;51.568;6.932;2023-04-08T06:07:37;49354.34;;;-144.14;100.00
7075;BME280;3578;51.568;6.932;2023-04-08T06:10:05;49358.34;;;-144.14;100.00
7075;BME280;3578;51.568;6.932;2023-04-08T06:12:34;49342.34;;;-144.14;100.00
7075;BME280;3578;51.568;6.932;2023-04-08T06:15:04;49368.38;;;-144.14;100.00
7075;BME280;3578;51.568;6.932;2023-04-08T06:17:31;49372.38;;;-144.14;100.00
7075;BME280;3578;51.568;6.932;2023-04-08T06:20:00;49442.44;;;-144.14;100.00
7075;BME280;3578;51.568;6.932;2023-04-08T06:22:28;49492.47;;;-144.14;100.00
7075;BME280;3578;51.568;6.932;2023-04-08T06:24:55;49692.66;;;-144.14;100.00
7075;BME280;3578;51.568;6.932;2023-04-08T06:27:22;49832.81;;;-144.14;100.00
7075;BME280;3578;51.568;6.932;2023-04-08T06:29:49;49830.81;;;-144.14;100.00
7075;BME280;3578;51.568;6.932;2023-04-08T06:32:18;49790.78;;;-144.14;100.00
7075;BME280;3578;51.568;6.932;2023-04-08T06:34:45;49790.78;;;-144.14;100.00
7075;BME280;3578;51.568;6.932;2023-04-08T06:37:12;49944.94;;;-144.14;100.00
7075;BME280;3578;51.568;6.932;2023-04-08T06:39:39;50015.00;;;-144.14;100.00
7075;BME280;3578;51.568;6.932;2023-04-08T06:42:06;50037.03;;;-144.14;100.00
7075;BME280;3578;51.568;6.932;2023-04-08T06:44:33;49990.97;;;-144.14;100.00
7075;BME280;3578;51.568;6.932;2023-04-08T06:47:00;49940.94;;;-144.14;100.00
7075;BME280;3578;51.568;6.932;2023-04-08T06:49:28;49997.00;;;-144.14;100.00
7075;BME280;3578;51.568;6.932;2023-04-08T06:51:56;50035.03;;;-144.14;100.00
7075;BME280;3578;51.568;6.932;2023-04-08T06:54:23;50181.19;;;-144.14;99.47
7075;BME280;3578;51.568;6.932;2023-04-08T06:56:50;50155.16;;;-144.14;99.50
7075;BME280;3578;51.568;6.932;2023-04-08T06:59:17;50261.28;;;-144.14;98.98
7075;BME280;3578;51.568;6.932;2023-04-08T07:01:44;50333.38;;;-144.14;98.58
7075;BME280;3578;51.568;6.932;2023-04-08T07:04:11;50397.44;;;-144.14;98.31
7075;BME280;3578;51.568;6.932;2023-04-08T07:06:39;50481.53;;;-144.14;97.42
7075;BME280;3578;51.568;6.932;2023-04-08T07:09:06;50523.59;;;-144.14;97.08
7075;BME280;3578;51.568;6.932;2023-04-08T07:11:33;50595.69;;;-144.14;96.78
7075;BME280;3578;51.568;6.932;2023-04-08T07:14:01;50589.69;;;-144.14;97.05
7075;BME280;3578;51.568;6.932;2023-04-08T07:16:28;50569.66;;;-144.14;97.21
7075;BME280;3578;51.568;6.932;2023-04-08T07:18:55;50543.63;;;-144.14;97.59
7075;BME280;3578;51.568;6.932;2023-04-08T07:21:22;51707.28;;;-144.14;86.06
7075;BME280;3578;51.568;6.932;2023-04-08T07:23:51;54013.72;;;-144.14;54.96
7075;BME280;3578;51.568;6.932;2023-04-08T07:26:18;53847.34;;;-144.14;57.72
7075;BME280;3578;51.568;6.932;2023-04-08T07:28:45;53622.84;;;-144.14;66.81
7075;BME280;3578;51.568;6.932;2023-04-08T07:31:13;53494.56;;;-144.14;73.04
7075;BME280;3578;51.568;6.932;2023-04-08T07:33:41;53294.16;;;-144.14;77.12
7075;BME280;3578;51.568;6.932;2023-04-08T07:36:08;53165.91;;;-144.14;79.94
7075;BME280;3578;51.568;6.932;2023-04-08T07:38:36;53053.69;;;-144.14;82.43
7075;BME280;3578;51.568;6.932;2023-04-08T07:41:04;52937.44;;;-144.14;84.22
7075;BME280;3578;51.568;6.932;2023-04-08T07:43:32;52849.28;;;-144.14;85.79
7075;BME280;3578;51.568;6.932;2023-04-08T07:46:01;52694.97;;;-144.14;87.63
7075;BME280;3578;51.568;6.932;2023-04-08T07:48:29;52640.88;;;-144.14;87.62
7075;BME280;3578;51.568;6.932;2023-04-08T07:50:56;52534.69;;;-144.14;89.38
7075;BME280;3578;51.568;6.932;2023-04-08T07:53:23;52392.44;;;-144.14;90.29
7075;BME280;3578;51.568;6.932;2023-04-08T07:55:51;52292.25;;;-144.14;91.88
7075;BME280;3578;51.568;6.932;2023-04-08T07:58:19;52228.13;;;-144.14;91.56
7075;BME280;3578;51.568;6.932;2023-04-08T08:00:46;52218.13;;;-144.14;91.60
7075;BME280;3578;51.568;6.932;2023-04-08T08:03:13;52210.09;;;-144.14;90.80
7075;BME280;3578;51.568;6.932;2023-04-08T08:05:40;52164.03;;;-144.14;91.44
7075;BME280;3578;51.568;6.932;2023-04-08T08:08:08;52208.09;;;-144.14;90.98
7075;BME280;3578;51.568;6.932;2023-04-08T08:10:36;52172.03;;;-144.14;91.83
7075;BME280;3578;51.568;6.932;2023-04-08T08:13:04;52152.00;;;-144.14;91.50
7075;BME280;3578;51.568;6.932;2023-04-08T08:15:32;52158.00;;;-144.14;91.69
7075;BME280;3578;51.568;6.932;2023-04-08T08:18:00;52228.13;;;-144.14;89.85
7075;BME280;3578;51.568;6.932;2023-04-08T08:20:27;52252.19;;;-144.14;89.93
7075;BME280;3578;51.568;6.932;2023-04-08T08:22:54;52230.13;;;-144.14;90.36
7075;BME280;3578;51.568;6.932;2023-04-08T08:25:21;52204.09;;;-144.14;90.76
7075;BME280;3578;51.568;6.932;2023-04-08T08:27:48;52224.13;;;-144.14;90.58
7075;BME280;3578;51.568;6.932;2023-04-08T08:30:15;52268.22;;;-144.14;89.37
7075;BME280;3578;51.568;6.932;2023-04-08T08:32:45;52278.22;;;-144.14;90.03
7075;BME280;3578;51.568;6.932;2023-04-08T08:35:13;52208.09;;;-144.14;91.38
7075;BME280;3578;51.568;6.932;2023-04-08T08:37:40;52270.22;;;-144.14;90.01
7075;BME280;3578;51.568;6.932;2023-04-08T08:40:08;52352.34;;;-144.14;87.69
7075;BME280;3578;51.568;6.932;2023-04-08T08:42:36;52382.41;;;-144.14;87.40
7075;BME280;3578;51.568;6.932;2023-04-08T08:45:06;52412.47;;;-144.14;87.84
7075;BME280;3578;51.568;6.932;2023-04-08T08:47:33;52352.34;;;-144.14;88.29
7075;BME280;3578;51.568;6.932;2023-04-08T08:50:02;52414.47;;;-144.14;88.13
7075;BME280;3578;51.568;6.932;2023-04-08T08:52:29;52408.47;;;-144.14;87.19
7075;BME280;3578;51.568;6.932;2023-04-08T08:54:58;52452.53;;;-144.14;86.23
7075;BME280;3578;51.568;6.932;2023-04-08T08:57:25;52466.56;;;-144.14;85.99
7075;BME280;3578;51.568;6.932;2023-04-08T08:59:52;52472.56;;;-144.14;86.54
7075;BME280;3578;51.568;6.932;2023-04-08T09:02:29;52494.63;;;-144.14;85.65
7075;BME280;3578;51.568;6.932;2023-04-08T09:04:58;52500.63;;;-144.14;85.54
7075;BME280;3578;51.568;6.932;2023-04-08T09:07:29;52584.78;;;-144.14;83.33
7075;BME280;3578;51.568;6.932;2023-04-08T09:09:58;52624.84;;;-144.14;82.44
7075;BME280;3578;51.568;6.932;2023-04-08T09:12:26;52624.84;;;-144.14;84.61
7075;BME280;3578;51.568;6.932;2023-04-08T09:15:03;52797.19;;;-144.14;78.78
7075;BME280;3578;51.568;6.932;2023-04-08T09:17:31;52867.31;;;-144.14;76.93
7075;BME280;3578;51.568;6.932;2023-04-08T09:20:09;52913.41;;;-144.14;78.08
7075;BME280;3578;51.568;6.932;2023-04-08T09:22:59;53007.59;;;-144.14;74.24
7075;BME280;3578;51.568;6.932;2023-04-08T09:25:27;53013.59;;;-144.14;74.76
7075;BME280;3578;51.568;6.932;2023-04-08T09:27:55;53061.69;;;-144.14;72.13
7075;BME280;3578;51.568;6.932;2023-04-08T09:30:24;53067.69;;;-144.14;72.28
7075;BME280;3578;51.568;6.932;2023-04-08T09:32:54;53013.59;;;-144.14;77.78
7075;BME280;3578;51.568;6.932;2023-04-08T09:35:22;52987.53;;;-144.14;79.18
7075;BME280;3578;51.568;6.932;2023-04-08T09:37:50;53043.66;;;-144.14;74.70
7075;BME280;3578;51.568;6.932;2023-04-08T09:40:18;53073.72;;;-144.14;74.27
7075;BME280;3578;51.568;6.932;2023-04-08T09:42:47;53105.78;;;-144.14;70.89
7075;BME280;3578;51.568;6.932;2023-04-08T09:45:17;53131.84;;;-144.14;70.55
7075;BME280;3578;51.568;6.932;2023-04-08T09:47:56;53151.88;;;-144.14;71.82
7075;BME280;3578;51.568;6.932;2023-04-08T09:50:31;53125.81;;;-144.14;71.58
7075;BME280;3578;51.568;6.932;2023-04-08T09:53:04;53053.69;;;-144.14;76.01
7075;BME280;3578;51.568;6.932;2023-04-08T09:55:36;53025.63;;;-144.14;76.42
7075;BME280;3578;51.568;6.932;2023-04-08T09:58:14;52999.56;;;-144.14;79.09
7075;BME280;3578;51.568;6.932;2023-04-08T10:00:48;52985.53;;;-144.14;80.60
7075;BME280;3578;51.568;6.932;2023-04-08T10:03:29;52977.53;;;-144.14;77.66
7075;BME280;3578;51.568;6.932;2023-04-08T10:06:01;53043.66;;;-144.14;77.16
7075;BME280;3578;51.568;6.932;2023-04-08T10:08:29;53023.63;;;-144.14;78.10
7075;BME280;3578;51.568;6.932;2023-04-08T10:10:59;53065.69;;;-144.14;74.51
7075;BME280;3578;51.568;6.932;2023-04-08T10:13:26;53065.69;;;-144.14;76.79
7075;BME280;3578;51.568;6.932;2023-04-08T10:16:18;53025.63;;;-144.14;78.50
7075;BME280;3578;51.568;6.932;2023-04-08T10:18:45;53029.63;;;-144.14;75.67
7075;BME280;3578;51.568;6.932;2023-04-08T10:21:33;53067.69;;;-144.14;75.00
7075;BME280;3578;51.568;6.932;2023-04-08T10:24:04;53057.69;;;-144.14;73.01
7075;BME280;3578;51.568;6.932;2023-04-08T10:26:42;53069.72;;;-144.14;74.00
7075;BME280;3578;51.568;6.932;2023-04-08T10:29:31;53081.72;;;-144.14;70.58
7075;BME280;3578;51.568;6.932;2023-04-08T10:31:59;53061.69;;;-144.14;70.77
7075;BME280;3578;51.568;6.932;2023-04-08T10:34:27;53057.69;;;-144.14;69.46
7075;BME280;3578;51.568;6.932;2023-04-08T10:36:56;53073.72;;;-144.14;72.63
7075;BME280;3578;51.568;6.932;2023-04-08T10:39:26;53035.63;;;-144.14;74.13
7075;BME280;3578;51.568;6.932;2023-04-08T10:41:54;53057.69;;;-144.14;75.91
7075;BME280;3578;51.568;6.932;2023-04-08T10:44:24;53077.72;;;-144.14;78.04
7075;BME280;3578;51.568;6.932;2023-04-08T10:46:53;53047.66;;;-144.14;79.30
7075;BME280;3578;51.568;6.932;2023-04-08T10:49:20;53109.78;;;-144.14;70.92
7075;BME280;3578;51.568;6.932;2023-04-08T10:51:47;53208.00;;;-144.14;66.45
7075;BME280;3578;51.568;6.932;2023-04-08T10:54:16;53169.91;;;-144.14;66.56
7075;BME280;3578;51.568;6.932;2023-04-08T10:56:45;53201.97;;;-144.14;70.48
7075;BME280;3578;51.568;6.932;2023-04-08T10:59:16;53226.03;;;-144.14;67.03
7075;BME280;3578;51.568;6.932;2023-04-08T11:01:45;53260.09;;;-144.14;65.15
7075;BME280;3578;51.568;6.932;2023-04-08T11:04:16;53324.22;;;-144.14;60.74
7075;BME280;3578;51.568;6.932;2023-04-08T11:06:46;53284.13;;;-144.14;62.26
7075;BME280;3578;51.568;6.932;2023-04-08T11:09:14;53334.25;;;-144.14;62.64
7075;BME280;3578;51.568;6.932;2023-04-08T11:11:43;53354.28;;;-144.14;62.48
7075;BME280;3578;51.568;6.932;2023-04-08T11:14:11;53372.31;;;-144.14;62.14
7075;BME280;3578;51.568;6.932;2023-04-08T11:16:40;53388.34;;;-144.14;62.66
7075;BME280;3578;51.568;6.932;2023-04-08T11:19:07;53378.34;;;-144.14;62.32
7075;BME280;3578;51.568;6.932;2023-04-08T11:21:35;53430.44;;;-144.14;58.59
7075;BME280;3578;51.568;6.932;2023-04-08T11:24:08;53464.50;;;-144.14;58.24
7075;BME280;3578;51.568;6.932;2023-04-08T11:26:37;53472.53;;;-144.14;59.20
7075;BME280;3578;51.568;6.932;2023-04-08T11:29:05;53470.53;;;-144.14;60.13
7075;BME280;3578;51.568;6.932;2023-04-08T11:31:34;53550.69;;;-144.14;57.32
7075;BME280;3578;51.568;6.932;2023-04-08T11:34:03;53532.66;;;-144.14;57.48
7075;BME280;3578;51.568;6.932;2023-04-08T11:36:30;53586.78;;;-144.14;57.60
7075;BME280;3578;51.568;6.932;2023-04-08T11:38:59;53582.78;;;-144.14;60.62
7075;BME280;3578;51.568;6.932;2023-04-08T11:41:35;53646.91;;;-144.14;61.08
7075;BME280;3578;51.568;6.932;2023-04-08T11:44:03;53622.84;;;-144.14;59.52
7075;BME280;3578;51.568;6.932;2023-04-08T11:46:31;53650.91;;;-144.14;58.92
7075;BME280;3578;51.568;6.932;2023-04-08T11:49:02;53640.88;;;-144.14;62.39
7075;BME280;3578;51.568;6.932;2023-04-08T11:51:31;53674.97;;;-144.14;58.95
7075;BME280;3578;51.568;6.932;2023-04-08T11:53:59;53689.00;;;-144.14;58.81
7075;BME280;3578;51.568;6.932;2023-04-08T11:56:26;53676.97;;;-144.14;60.40
7075;BME280;3578;51.568;6.932;2023-04-08T11:58:55;53695.00;;;-144.14;59.27
7075;BME280;3578;51.568;6.932;2023-04-08T12:01:22;53672.97;;;-144.14;59.03
7075;BME280;3578;51.568;6.932;2023-04-08T12:03:56;53606.81;;;-144.14;60.07
7075;BME280;3578;51.568;6.932;2023-04-08T12:06:25;53638.88;;;-144.14;60.12
7075;BME280;3578;51.568;6.932;2023-04-08T12:08:54;53678.97;;;-144.14;60.77
7075;BME280;3578;51.568;6.932;2023-04-08T12:11:22;53622.84;;;-144.14;61.08
7075;BME280;3578;51.568;6.932;2023-04-08T12:13:49;53626.88;;;-144.14;61.01
7075;BME280;3578;51.568;6.932;2023-04-08T12:16:17;53626.88;;;-144.14;63.40
7075;BME280;3578;51.568;6.932;2023-04-08T12:18:45;53666.94;;;-144.14;62.53
7075;BME280;3578;51.568;6.932;2023-04-08T12:21:12;53632.88;;;-144.14;62.95
7075;BME280;3578;51.568;6.932;2023-04-08T12:23:40;53660.94;;;-144.14;61.94
7075;BME280;3578;51.568;6.932;2023-04-08T12:26:07;53636.88;;;-144.14;62.59
7075;BME280;3578;51.568;6.932;2023-04-08T12:28:34;53691.00;;;-144.14;61.33
7075;BME280;3578;51.568;6.932;2023-04-08T12:31:02;53685.00;;;-144.14;60.49
7075;BME280;3578;51.568;6.932;2023-04-08T12:33:29;53715.06;;;-144.14;61.81
7075;BME280;3578;51.568;6.932;2023-04-08T12:35:56;53735.09;;;-144.14;61.48
7075;BME280;3578;51.568;6.932;2023-04-08T12:38:23;53721.06;;;-144.14;59.72
7075;BME280;3578;51.568;6.932;2023-04-08T12:40:52;53707.03;;;-144.14;61.63
7075;BME280;3578;51.568;6.932;2023-04-08T12:43:19;53628.88;;;-144.14;64.07
7075;BME280;3578;51.568;6.932;2023-04-08T12:45:46;53650.91;;;-144.14;62.64
7075;BME280;3578;51.568;6.932;2023-04-08T12:48:14;53685.00;;;-144.14;62.56
7075;BME280;3578;51.568;6.932;2023-04-08T12:50:41;53650.91;;;-144.14;61.66
7075;BME280;3578;51.568;6.932;2023-04-08T12:53:08;53662.94;;;-144.14;63.85
7075;BME280;3578;51.568;6.932;2023-04-08T12:55:35;53685.00;;;-144.14;64.47
7075;BME280;3578;51.568;6.932;2023-04-08T12:58:03;53668.94;;;-144.14;65.95
7075;BME280;3578;51.568;6.932;2023-04-08T13:00:31;53622.84;;;-144.14;63.02
7075;BME280;3578;51.568;6.932;2023-04-08T13:02:58;53590.78;;;-144.14;66.16